Mahned, Mississippi
Current Conditions -  °F | °C
As of 12:53 PM on Thursday 30 Oct 2014 (Local Time) from KHBG Reporting Station
Clear Clear  
Wind Chill: 71°   Ceiling: Unl
Heat Index: 71°   Visibility: 10mi
Dew Point: 37°   Wind: 10mph
Humidity: 29%   Direction: 10°N
Pressure: 30.1"   Gusts: NA
Location:  31.0667°N, 89.05°W
Report Text: KHBG 301753Z AUTO 01009KT 10SM CLR 22/03 A3010 RMK AO2 SLP192 T02170028 10217 20072 58017
Loading
Personal Weather Stations






























Interactive Weather Map
Tropical Storm Tracking
New forecast layout! Learn more

10-Day Weather Forecast

Advertisements
Track Severe Weather on mobile